createdAt,value
2018-04-27T00:02:03.737Z,5.50
2018-04-27T00:04:32.055Z,5.40
2018-04-27T00:07:00.370Z,5.50
2018-04-27T00:09:28.770Z,5.40
2018-04-27T00:11:57.096Z,5.40
2018-04-27T00:14:26.173Z,5.30
2018-04-27T00:16:54.481Z,5.30
2018-04-27T00:19:23.555Z,5.20
2018-04-27T00:21:51.862Z,5.20
2018-04-27T00:24:20.933Z,5.20
2018-04-27T00:26:49.251Z,5.20
2018-04-27T00:29:18.484Z,5.10
2018-04-27T00:31:46.802Z,5.20
2018-04-27T00:34:15.125Z,5.20
2018-04-27T00:36:43.460Z,5.20
2018-04-27T00:39:12.519Z,5.10
2018-04-27T00:41:40.833Z,5.10
2018-04-27T00:44:09.155Z,5.00
2018-04-27T00:46:37.465Z,5.00
2018-04-27T00:49:05.780Z,5.10
2018-04-27T00:51:34.857Z,5.20
2018-04-27T00:54:03.196Z,5.20
2018-04-27T00:56:31.606Z,5.10
2018-04-27T00:58:59.934Z,4.90
2018-04-27T01:01:29.989Z,5.00
2018-04-27T01:03:58.323Z,5.00
2018-04-27T01:06:27.378Z,4.80
2018-04-27T01:08:55.712Z,4.80
2018-04-27T01:11:24.010Z,4.70
2018-04-27T01:13:52.342Z,4.70
2018-04-27T01:16:21.415Z,4.70
2018-04-27T01:18:49.750Z,4.70
2018-04-27T01:21:18.037Z,4.90
2018-04-27T01:23:46.349Z,4.90
2018-04-27T01:26:21.347Z,4.80
2018-04-27T01:28:49.659Z,4.90
2018-04-27T01:31:17.955Z,4.90
2018-04-27T01:33:46.314Z,4.90
2018-04-27T01:36:14.593Z,4.90
2018-04-27T01:38:42.911Z,4.70
2018-04-27T01:41:11.205Z,4.60
2018-04-27T01:43:39.517Z,4.60
2018-04-27T01:46:07.811Z,4.50
2018-04-27T01:48:36.098Z,4.30
2018-04-27T01:51:04.414Z,4.20
2018-04-27T01:53:33.498Z,4.40
2018-04-27T01:56:01.957Z,4.30
2018-04-27T01:58:30.258Z,4.40
2018-04-27T02:00:58.697Z,4.20
2018-04-27T02:03:26.994Z,4.30
2018-04-27T02:05:55.313Z,4.30
2018-04-27T02:08:23.631Z,4.30
2018-04-27T02:10:51.943Z,4.20
2018-04-27T02:13:20.240Z,4.10
2018-04-27T02:15:49.328Z,4.00
2018-04-27T02:18:17.622Z,4.00
2018-04-27T02:20:45.951Z,4.00
2018-04-27T02:23:14.257Z,4.10
2018-04-27T02:25:42.587Z,4.20
2018-04-27T02:28:10.899Z,4.20
2018-04-27T02:30:39.226Z,4.10
2018-04-27T02:33:08.305Z,4.00
2018-04-27T02:35:36.618Z,3.90
2018-04-27T02:38:04.921Z,3.90
2018-04-27T02:40:33.262Z,3.70
2018-04-27T02:43:02.327Z,3.90
2018-04-27T02:45:30.612Z,3.90
2018-04-27T02:47:58.925Z,3.80
2018-04-27T02:50:27.228Z,3.80
2018-04-27T02:52:55.563Z,3.90
2018-04-27T02:55:23.885Z,3.80
2018-04-27T02:57:52.221Z,3.70
2018-04-27T03:00:21.278Z,3.70
2018-04-27T03:02:49.592Z,3.70
2018-04-27T03:05:17.966Z,3.60
2018-04-27T03:07:47.134Z,3.70
2018-04-27T03:10:15.427Z,3.70
2018-04-27T03:12:43.761Z,3.70
2018-04-27T03:15:12.083Z,3.50
2018-04-27T03:17:40.471Z,3.50
2018-04-27T03:20:08.774Z,3.40
2018-04-27T03:22:37.890Z,3.30
2018-04-27T03:25:06.208Z,3.30
2018-04-27T03:27:34.544Z,3.40
2018-04-27T03:30:03.615Z,3.50
2018-04-27T03:32:32.023Z,3.50
2018-04-27T03:35:00.354Z,3.50
2018-04-27T03:37:28.755Z,3.50
2018-04-27T03:39:57.059Z,3.60
2018-04-27T03:42:26.134Z,3.40
2018-04-27T03:44:54.449Z,3.30
2018-04-27T03:47:22.762Z,3.30
2018-04-27T03:49:51.087Z,3.20
2018-04-27T03:52:20.187Z,3.10
2018-04-27T03:54:49.271Z,3.10
2018-04-27T03:57:17.685Z,3.00
2018-04-27T03:59:57.731Z,2.90
2018-04-27T04:02:37.903Z,3.00
2018-04-27T04:05:18.024Z,3.10
2018-04-27T04:07:47.102Z,3.20
2018-04-27T04:10:15.429Z,3.10
2018-04-27T04:12:43.779Z,3.30
2018-04-27T04:15:12.894Z,3.40
2018-04-27T04:17:41.224Z,3.40
2018-04-27T04:20:09.594Z,3.40
2018-04-27T04:22:37.904Z,3.40
2018-04-27T04:25:06.232Z,3.50
2018-04-27T04:27:34.533Z,3.50
2018-04-27T04:30:02.886Z,3.50
2018-04-27T04:32:31.290Z,3.50
2018-04-27T04:34:59.602Z,3.60
2018-04-27T04:37:27.919Z,3.60
2018-04-27T04:39:56.251Z,3.60
2018-04-27T04:42:24.559Z,3.60
2018-04-27T04:44:53.678Z,3.60
2018-04-27T04:47:21.985Z,3.50
2018-04-27T04:49:50.330Z,3.50
2018-04-27T04:52:18.714Z,3.50
2018-04-27T04:54:47.147Z,3.50
2018-04-27T04:57:15.499Z,3.40
2018-04-27T04:59:44.647Z,3.50
2018-04-27T05:02:13.780Z,3.50
2018-04-27T05:04:42.089Z,3.40
2018-04-27T05:07:11.080Z,3.50
2018-04-27T05:09:39.387Z,3.60
2018-04-27T05:12:08.491Z,4.00
2018-04-27T05:14:36.794Z,4.00
2018-04-27T05:17:05.128Z,3.90
2018-04-27T05:19:34.442Z,3.80
2018-04-27T05:22:02.778Z,4.00
2018-04-27T05:24:31.183Z,4.10
2018-04-27T05:26:59.513Z,4.30
2018-04-27T05:29:28.606Z,4.30
2018-04-27T05:31:56.969Z,4.30
2018-04-27T05:34:25.301Z,4.60
2018-04-27T05:36:53.651Z,4.90
2018-04-27T05:39:21.955Z,5.20
2018-04-27T05:41:50.283Z,5.50
2018-04-27T05:44:19.376Z,5.70
2018-04-27T05:46:48.487Z,6.00
2018-04-27T05:49:17.585Z,6.40
2018-04-27T05:51:45.933Z,6.30
2018-04-27T05:54:14.295Z,6.40
2018-04-27T05:56:42.607Z,6.50
2018-04-27T05:59:10.925Z,6.50
2018-04-27T06:01:39.240Z,6.60
2018-04-27T06:04:09.958Z,6.70
2018-04-27T06:06:38.355Z,7.00
2018-04-27T06:09:06.687Z,7.10
2018-04-27T06:11:35.776Z,6.60
2018-04-27T06:14:04.881Z,7.10
2018-04-27T06:16:33.206Z,7.00
2018-04-27T06:19:01.530Z,7.40
2018-04-27T06:21:30.610Z,8.10
2018-04-27T06:23:58.966Z,8.10
2018-04-27T06:26:27.956Z,7.90
2018-04-27T06:28:56.335Z,7.90
2018-04-27T06:31:24.667Z,8.00
2018-04-27T06:33:53.774Z,8.50
2018-04-27T06:36:22.083Z,8.50
2018-04-27T06:38:50.414Z,8.70
2018-04-27T06:41:18.738Z,8.90
2018-04-27T06:43:47.072Z,9.20
2018-04-27T06:46:17.032Z,8.70
2018-04-27T06:48:45.402Z,8.70
2018-04-27T06:51:13.710Z,9.40
2018-04-27T06:53:42.050Z,9.70
2018-04-27T06:56:10.423Z,9.50
2018-04-27T06:58:38.745Z,9.40
2018-04-27T07:01:07.071Z,9.90
2018-04-27T07:03:36.154Z,10.40
2018-04-27T07:06:08.323Z,10.40
2018-04-27T07:08:36.658Z,10.50
2018-04-27T07:11:05.017Z,10.70
2018-04-27T07:13:33.391Z,11.20
2018-04-27T07:16:01.722Z,11.60
2018-04-27T07:18:30.035Z,11.70
2018-04-27T07:20:59.145Z,11.80
2018-04-27T07:23:28.229Z,11.20
2018-04-27T07:25:57.334Z,11.50
2018-04-27T07:28:26.432Z,11.40
2018-04-27T07:30:55.527Z,11.10
2018-04-27T07:33:24.618Z,11.90
2018-04-27T07:35:53.713Z,12.00
2018-04-27T07:38:22.033Z,12.00
2018-04-27T07:40:50.385Z,12.30
2018-04-27T07:43:19.472Z,12.90
2018-04-27T07:45:47.828Z,12.90
2018-04-27T07:48:16.189Z,13.20
2018-04-27T07:50:44.515Z,11.60
2018-04-27T07:53:15.667Z,13.10
2018-04-27T07:55:44.737Z,13.00
2018-04-27T07:58:13.083Z,13.00
2018-04-27T08:00:41.401Z,13.40
2018-04-27T08:03:09.743Z,13.30
2018-04-27T08:05:38.075Z,12.70
2018-04-27T08:08:07.193Z,13.40
2018-04-27T08:10:35.506Z,13.40
2018-04-27T08:13:03.843Z,13.70
2018-04-27T08:15:32.175Z,13.60
2018-04-27T08:18:01.519Z,13.90
2018-04-27T08:20:30.614Z,13.70
2018-04-27T08:22:59.711Z,14.00
2018-04-27T08:25:28.043Z,13.90
2018-04-27T08:27:56.379Z,14.30
2018-04-27T08:30:24.699Z,14.20
2018-04-27T08:32:53.041Z,14.20
2018-04-27T08:35:21.402Z,14.20
2018-04-27T08:37:50.499Z,14.10
2018-04-27T08:40:19.603Z,14.90
2018-04-27T08:42:48.685Z,15.00
2018-04-27T08:45:17.030Z,14.90
2018-04-27T08:47:46.987Z,15.40
2018-04-27T08:50:16.099Z,15.10
2018-04-27T08:52:44.423Z,15.00
2018-04-27T08:55:12.771Z,14.10
2018-04-27T08:57:41.108Z,14.10
2018-04-27T09:00:10.243Z,14.70
2018-04-27T09:02:38.681Z,14.70
2018-04-27T09:05:07.722Z,15.10
2018-04-27T09:07:36.821Z,15.20
2018-04-27T09:10:05.178Z,15.20
2018-04-27T09:12:33.482Z,15.40
2018-04-27T09:15:01.859Z,15.10
2018-04-27T09:17:30.181Z,15.30
2018-04-27T09:19:58.514Z,15.30
2018-04-27T09:22:27.590Z,15.40
2018-04-27T09:24:56.697Z,15.80
2018-04-27T09:27:25.791Z,15.90
2018-04-27T09:29:54.125Z,15.90
2018-04-27T09:32:22.502Z,16.00
2018-04-27T09:34:51.558Z,15.40
2018-04-27T09:37:21.157Z,15.60
2018-04-27T09:39:50.259Z,15.20
2018-04-27T09:42:19.328Z,15.70
2018-04-27T09:44:47.664Z,15.70
2018-04-27T09:47:16.075Z,16.00
2018-04-27T09:49:44.411Z,15.80
2018-04-27T09:52:13.535Z,16.00
2018-04-27T09:54:41.876Z,16.00
2018-04-27T09:57:10.977Z,15.70
2018-04-27T09:59:40.094Z,15.60
2018-04-27T10:02:08.419Z,15.50
2018-04-27T10:04:36.726Z,15.90
2018-04-27T10:07:05.075Z,16.30
2018-04-27T10:09:33.399Z,17.00
2018-04-27T10:12:01.761Z,16.60
2018-04-27T10:14:30.846Z,16.40
2018-04-27T10:16:59.203Z,16.30
2018-04-27T10:19:37.964Z,16.90
2018-04-27T10:22:06.255Z,17.00
2018-04-27T10:24:34.601Z,16.70
2018-04-27T10:27:03.067Z,17.50
2018-04-27T10:29:31.418Z,17.00
2018-04-27T10:31:59.832Z,16.50
2018-04-27T10:34:28.191Z,16.00
2018-04-27T10:36:56.537Z,16.80
2018-04-27T10:39:24.867Z,16.70
2018-04-27T10:41:53.182Z,16.90
2018-04-27T10:44:22.282Z,16.90
2018-04-27T10:46:51.378Z,16.70
2018-04-27T10:49:19.733Z,16.70
2018-04-27T10:51:48.067Z,17.10
2018-04-27T10:54:16.400Z,16.90
2018-04-27T10:56:44.717Z,16.90
2018-04-27T10:59:13.055Z,17.40
2018-04-27T11:01:42.370Z,18.30
2018-04-27T11:04:11.475Z,17.60
2018-04-27T11:06:39.800Z,17.60
2018-04-27T11:09:08.191Z,18.00
2018-04-27T11:11:36.542Z,18.00
2018-04-27T11:14:04.936Z,18.20
2018-04-27T11:16:33.256Z,17.80
2018-04-27T11:19:02.395Z,17.30
2018-04-27T11:21:30.715Z,17.30
2018-04-27T11:23:59.021Z,17.80
2018-04-27T11:26:27.390Z,17.30
2018-04-27T11:28:55.738Z,17.50
2018-04-27T11:31:24.145Z,18.10
2018-04-27T11:33:52.446Z,18.00
2018-04-27T11:36:20.883Z,18.50
2018-04-27T11:38:49.259Z,17.40
2018-04-27T11:41:17.707Z,17.70
2018-04-27T11:43:46.750Z,18.50
2018-04-27T11:46:15.102Z,18.40
2018-04-27T11:48:43.419Z,18.20
2018-04-27T11:51:12.538Z,17.90
2018-04-27T11:53:40.866Z,17.90
2018-04-27T11:56:09.204Z,17.90
2018-04-27T11:58:37.544Z,18.30
2018-04-27T12:01:06.641Z,18.40
2018-04-27T12:03:35.763Z,18.00
2018-04-27T12:06:04.161Z,18.00
2018-04-27T12:08:32.511Z,18.10
2018-04-27T12:11:00.846Z,17.70
2018-04-27T12:13:29.200Z,18.30
2018-04-27T12:15:57.576Z,18.00
2018-04-27T12:18:25.904Z,18.80
2018-04-27T12:20:54.272Z,19.00
2018-04-27T12:23:22.585Z,18.80
2018-04-27T12:25:50.895Z,19.30
2018-04-27T12:28:19.256Z,19.80
2018-04-27T12:30:47.706Z,19.40
2018-04-27T12:33:16.211Z,18.40
2018-04-27T12:35:44.530Z,18.90
2018-04-27T12:38:12.916Z,18.50
2018-04-27T12:40:41.268Z,18.80
2018-04-27T12:43:09.653Z,19.30
2018-04-27T12:45:38.063Z,18.70
2018-04-27T12:48:06.456Z,19.00
2018-04-27T12:50:34.794Z,19.20
2018-04-27T12:53:03.151Z,19.80
2018-04-27T12:55:31.618Z,19.40
2018-04-27T12:57:59.978Z,19.60
2018-04-27T13:00:28.295Z,19.80
2018-04-27T13:02:56.689Z,18.90
2018-04-27T13:05:25.020Z,19.00
2018-04-27T13:07:53.376Z,19.80
2018-04-27T13:10:21.702Z,19.70
2018-04-27T13:12:50.053Z,19.30
2018-04-27T13:15:18.390Z,19.50
2018-04-27T13:17:46.755Z,19.50
2018-04-27T13:20:15.068Z,18.90
2018-04-27T13:22:43.426Z,19.10
2018-04-27T13:25:11.759Z,19.40
2018-04-27T13:27:40.100Z,20.00
2018-04-27T13:30:09.208Z,19.80
2018-04-27T13:32:37.561Z,19.80
2018-04-27T13:35:05.886Z,19.90
2018-04-27T13:37:34.323Z,19.40
2018-04-27T13:40:02.655Z,19.70
2018-04-27T13:42:31.010Z,20.00
2018-04-27T13:44:59.412Z,19.50
2018-04-27T13:47:27.760Z,19.00
2018-04-27T13:49:56.117Z,19.20
2018-04-27T13:52:25.250Z,20.20
2018-04-27T13:54:54.641Z,20.20
2018-04-27T13:57:23.042Z,20.40
2018-04-27T13:59:51.368Z,20.10
2018-04-27T14:02:19.710Z,19.60
2018-04-27T14:04:48.101Z,20.00
2018-04-27T14:07:16.493Z,19.70
2018-04-27T14:09:44.909Z,19.50
2018-04-27T14:12:13.231Z,19.80
2018-04-27T14:14:41.571Z,19.70
2018-04-27T14:17:09.949Z,19.60
2018-04-27T14:19:38.295Z,19.50
2018-04-27T14:22:07.402Z,20.00
2018-04-27T14:24:35.811Z,19.90
2018-04-27T14:27:04.162Z,20.10
2018-04-27T14:29:32.503Z,19.50
2018-04-27T14:32:00.874Z,19.60
2018-04-27T14:34:29.183Z,19.90
2018-04-27T14:36:57.522Z,20.00
2018-04-27T14:39:25.855Z,20.40
2018-04-27T14:41:54.957Z,20.20
2018-04-27T14:44:23.300Z,20.20
2018-04-27T14:46:51.619Z,20.50
2018-04-27T14:49:19.927Z,20.50
2018-04-27T14:51:48.267Z,20.60
2018-04-27T14:54:16.717Z,20.20
2018-04-27T14:56:45.099Z,20.50
2018-04-27T14:59:13.447Z,20.60
2018-04-27T15:01:41.771Z,20.60
2018-04-27T15:04:10.875Z,20.00
2018-04-27T15:06:39.179Z,19.90
2018-04-27T15:09:07.518Z,19.80
2018-04-27T15:11:35.841Z,20.30
2018-04-27T15:14:04.200Z,20.50
2018-04-27T15:16:32.534Z,20.80
2018-04-27T15:19:02.648Z,20.90
2018-04-27T15:21:31.063Z,20.90
2018-04-27T15:23:59.398Z,20.90
2018-04-27T15:26:27.720Z,20.90
2018-04-27T15:28:58.007Z,20.10
2018-04-27T15:31:26.324Z,20.00
2018-04-27T15:33:54.679Z,20.00
2018-04-27T15:36:23.831Z,19.70
2018-04-27T15:38:52.198Z,19.70
2018-04-27T15:41:20.665Z,19.80
2018-04-27T15:43:49.099Z,19.70
2018-04-27T15:46:18.482Z,20.30
2018-04-27T15:48:46.884Z,20.30
2018-04-27T15:51:16.060Z,20.20
2018-04-27T15:53:44.458Z,20.20
2018-04-27T15:56:13.560Z,20.30
2018-04-27T15:58:41.963Z,20.20
2018-04-27T16:01:10.304Z,20.30
2018-04-27T16:03:38.715Z,20.50
2018-04-27T16:06:07.095Z,20.30
2018-04-27T16:08:35.452Z,20.40
2018-04-27T16:11:04.544Z,20.50
2018-04-27T16:13:40.418Z,20.50
2018-04-27T16:16:08.788Z,20.30
2018-04-27T16:18:37.948Z,20.50
2018-04-27T16:21:06.272Z,20.50
2018-04-27T16:23:34.724Z,20.10
2018-04-27T16:26:03.100Z,20.40
2018-04-27T16:28:31.439Z,20.60
2018-04-27T16:30:59.750Z,20.70
2018-04-27T16:33:28.130Z,20.80
2018-04-27T16:35:57.339Z,20.60
2018-04-27T16:38:25.739Z,20.60
2018-04-27T16:40:54.823Z,20.70
2018-04-27T16:43:23.922Z,20.20
2018-04-27T16:45:52.279Z,20.20
2018-04-27T16:48:20.722Z,20.20
2018-04-27T16:50:49.084Z,20.30
2018-04-27T16:53:17.411Z,20.30
2018-04-27T16:55:45.822Z,20.10
2018-04-27T16:58:15.008Z,20.30
2018-04-27T17:00:43.367Z,20.20
2018-04-27T17:03:11.751Z,20.10
2018-04-27T17:05:40.073Z,20.20
2018-04-27T17:08:08.453Z,20.50
2018-04-27T17:10:36.807Z,20.30
2018-04-27T17:13:05.916Z,20.10
2018-04-27T17:15:34.253Z,20.10
2018-04-27T17:18:02.590Z,20.10
2018-04-27T17:20:30.904Z,20.10
2018-04-27T17:22:59.226Z,19.90
2018-04-27T17:25:28.360Z,19.60
2018-04-27T17:27:56.695Z,19.60
2018-04-27T17:30:25.067Z,19.70
2018-04-27T17:32:53.411Z,19.80
2018-04-27T17:35:21.815Z,20.00
2018-04-27T17:37:50.162Z,20.10
2018-04-27T17:40:18.580Z,20.10
2018-04-27T17:42:47.673Z,19.90
2018-04-27T17:45:16.791Z,19.70
2018-04-27T17:47:45.207Z,19.70
2018-04-27T17:50:13.671Z,19.80
2018-04-27T17:52:42.022Z,19.70
2018-04-27T17:55:11.311Z,20.10
2018-04-27T17:57:40.005Z,20.10
2018-04-27T18:00:09.137Z,20.10
2018-04-27T18:02:37.503Z,20.10
2018-04-27T18:05:05.840Z,20.20
2018-04-27T18:07:34.597Z,19.90
2018-04-27T18:10:03.043Z,19.80
2018-04-27T18:12:31.409Z,19.80
2018-04-27T18:14:59.743Z,19.70
2018-04-27T18:17:28.238Z,19.70
2018-04-27T18:19:56.580Z,19.60
2018-04-27T18:22:25.039Z,19.60
2018-04-27T18:24:53.424Z,19.50
2018-04-27T18:27:21.794Z,19.50
2018-04-27T18:29:50.133Z,19.50
2018-04-27T18:32:19.218Z,19.30
2018-04-27T18:34:47.611Z,19.30
2018-04-27T18:37:15.926Z,18.80
2018-04-27T18:39:44.311Z,18.80
2018-04-27T18:42:12.627Z,18.60
2018-04-27T18:44:40.983Z,18.60
2018-04-27T18:47:09.306Z,18.40
2018-04-27T18:49:38.410Z,17.90
2018-04-27T18:52:06.779Z,17.90
2018-04-27T18:54:35.930Z,17.60
2018-04-27T18:57:04.255Z,17.60
2018-04-27T18:59:32.687Z,17.20
2018-04-27T19:02:01.124Z,16.20
2018-04-27T19:04:29.465Z,16.40
2018-04-27T19:06:58.624Z,16.40
2018-04-27T19:09:26.996Z,16.40
2018-04-27T19:11:55.353Z,16.60
2018-04-27T19:14:23.717Z,16.70
2018-04-27T19:16:52.015Z,16.80
2018-04-27T19:19:21.157Z,16.20
2018-04-27T19:21:49.489Z,16.20
2018-04-27T19:24:18.599Z,16.20
2018-04-27T19:26:47.019Z,16.20
2018-04-27T19:29:15.386Z,16.00
2018-04-27T19:31:43.796Z,15.10
2018-04-27T19:34:12.158Z,15.40
2018-04-27T19:36:40.498Z,15.50
2018-04-27T19:39:09.603Z,15.40
2018-04-27T19:41:37.941Z,15.40
2018-04-27T19:44:06.307Z,15.50
2018-04-27T19:46:34.627Z,15.60
2018-04-27T19:49:03.736Z,15.70
2018-04-27T19:51:32.099Z,15.70
2018-04-27T19:54:00.427Z,15.10
2018-04-27T19:56:28.812Z,14.80
2018-04-27T19:58:57.212Z,14.80
2018-04-27T20:01:25.515Z,14.70
2018-04-27T20:03:54.600Z,14.30
2018-04-27T20:06:22.947Z,14.30
2018-04-27T20:08:51.284Z,14.30
2018-04-27T20:11:20.394Z,14.00
2018-04-27T20:13:48.699Z,13.90
2018-04-27T20:16:28.808Z,13.90
2018-04-27T20:18:57.140Z,13.50
2018-04-27T20:21:25.471Z,12.80
2018-04-27T20:23:53.787Z,13.00
2018-04-27T20:26:22.135Z,13.30
2018-04-27T20:28:51.241Z,13.30
2018-04-27T20:31:20.342Z,13.30
2018-04-27T20:33:50.413Z,13.40
2018-04-27T20:36:18.789Z,13.40
2018-04-27T20:38:48.090Z,13.30
2018-04-27T20:41:17.361Z,13.20
2018-04-27T20:43:48.583Z,13.10
2018-04-27T20:46:20.066Z,12.90
2018-04-27T20:48:48.385Z,12.80
2018-04-27T20:51:16.709Z,12.50
2018-04-27T20:56:47.179Z,12.90
2018-04-27T20:59:15.485Z,12.80
2018-04-27T21:01:44.636Z,12.60
2018-04-27T21:04:13.800Z,12.50
2018-04-27T21:06:42.078Z,12.50
2018-04-27T21:09:10.399Z,12.50
2018-04-27T21:11:38.722Z,12.50
2018-04-27T21:14:07.115Z,12.30
2018-04-27T21:16:35.406Z,12.30
2018-04-27T21:19:04.486Z,12.30
2018-04-27T21:21:32.835Z,12.30
2018-04-27T21:24:01.172Z,12.20
2018-04-27T21:26:30.404Z,12.00
2018-04-27T21:28:58.743Z,12.30
2018-04-27T21:31:28.858Z,12.20
2018-04-27T21:33:57.956Z,12.20
2018-04-27T21:36:29.844Z,12.20
2018-04-27T21:42:04.366Z,11.90
2018-04-27T21:44:35.167Z,11.50
2018-04-27T21:47:19.310Z,11.50
2018-04-27T21:49:49.200Z,11.40
2018-04-27T21:55:19.543Z,11.20
2018-04-27T21:57:51.684Z,11.20
2018-04-27T22:00:20.738Z,11.10
2018-04-27T22:03:01.236Z,11.10
2018-04-27T22:05:36.119Z,11.00
2018-04-27T22:08:06.954Z,10.90
2018-04-27T22:10:35.266Z,10.90
2018-04-27T22:13:03.609Z,11.00
2018-04-27T22:15:31.928Z,11.00
2018-04-27T22:18:10.190Z,11.00
2018-04-27T22:20:42.924Z,10.70
2018-04-27T22:23:11.280Z,10.70
2018-04-27T22:25:44.411Z,10.50
2018-04-27T22:28:12.739Z,10.40
2018-04-27T22:30:43.965Z,10.50
2018-04-27T22:33:15.487Z,9.60
2018-04-27T22:35:47.366Z,9.60
2018-04-27T22:41:12.835Z,9.40
2018-04-27T22:43:41.196Z,9.70
2018-04-27T22:46:10.268Z,9.50
2018-04-27T22:48:43.295Z,9.70
2018-04-27T22:51:20.883Z,9.60
2018-04-27T22:53:55.847Z,9.60
2018-04-27T22:56:25.059Z,9.30
2018-04-27T22:58:53.407Z,9.60
2018-04-27T23:01:21.724Z,9.80
2018-04-27T23:03:57.490Z,9.70
2018-04-27T23:06:25.838Z,9.70
2018-04-27T23:08:54.254Z,9.80
2018-04-27T23:11:22.557Z,9.80
2018-04-27T23:16:54.986Z,9.50
2018-04-27T23:19:27.012Z,9.50
2018-04-27T23:22:01.674Z,9.40
2018-04-27T23:24:30.030Z,9.30
2018-04-27T23:27:01.328Z,9.40
2018-04-27T23:29:29.718Z,9.40
2018-04-27T23:31:58.060Z,9.40
2018-04-27T23:34:27.192Z,9.20
2018-04-27T23:36:58.343Z,9.20
2018-04-27T23:39:26.693Z,9.00
2018-04-27T23:41:55.011Z,8.80
2018-04-27T23:44:23.372Z,9.00
2018-04-27T23:46:51.763Z,9.10
2018-04-27T23:49:20.847Z,9.00
2018-04-27T23:51:49.956Z,9.00
2018-04-27T23:54:19.323Z,9.00
2018-04-27T23:56:48.417Z,8.80
2018-04-27T23:59:18.983Z,8.90
